createdAt,value
2022-08-18T04:03:50.335Z,73.60
2022-08-18T04:06:59.628Z,74.63
2022-08-18T04:10:02.219Z,74.80
2022-08-18T04:13:05.560Z,75.10
2022-08-18T04:16:09.049Z,74.94
2022-08-18T04:19:13.812Z,74.85
2022-08-18T04:22:17.570Z,74.72
2022-08-18T04:25:21.871Z,74.81
2022-08-18T04:28:25.065Z,74.62
2022-08-18T04:31:29.639Z,74.72
2022-08-18T04:34:33.587Z,74.38
2022-08-18T04:37:39.511Z,74.12
2022-08-18T04:40:42.622Z,73.52
2022-08-18T04:43:48.089Z,73.34
2022-08-18T04:46:53.157Z,73.04
2022-08-18T04:49:55.986Z,72.72
2022-08-18T04:53:17.230Z,72.23
2022-08-18T04:56:27.510Z,72.12
2022-08-18T04:59:30.041Z,72.02
2022-08-18T05:02:33.651Z,71.65
2022-08-18T05:05:36.240Z,71.12
2022-08-18T05:08:39.303Z,70.05
2022-08-18T05:11:44.606Z,69.60
2022-08-18T05:14:47.976Z,69.11
2022-08-18T05:17:51.043Z,68.71
2022-08-18T05:20:56.402Z,68.36
2022-08-18T05:24:00.903Z,68.02
2022-08-18T05:27:04.966Z,67.76
2022-08-18T05:30:09.250Z,67.30
2022-08-18T05:33:12.126Z,66.84
2022-08-18T05:36:39.042Z,66.26
2022-08-18T05:40:00.836Z,65.81
2022-08-18T05:43:06.588Z,65.55
2022-08-18T05:46:11.255Z,65.30
2022-08-18T05:49:15.561Z,64.93
2022-08-18T05:52:41.187Z,64.57
2022-08-18T05:56:12.922Z,64.38
2022-08-18T05:59:38.885Z,64.06
2022-08-18T06:02:51.827Z,63.58
2022-08-18T06:05:58.128Z,62.99
2022-08-18T06:09:13.988Z,62.55
2022-08-18T06:12:24.966Z,61.99
2022-08-18T06:15:39.522Z,61.25
2022-08-18T06:19:19.753Z,60.88
2022-08-18T06:22:52.591Z,60.46
2022-08-18T06:26:20.043Z,59.69
2022-08-18T06:29:42.052Z,59.38
2022-08-18T06:33:10.242Z,58.67
2022-08-18T06:36:31.479Z,58.20
2022-08-18T06:39:39.972Z,57.59
2022-08-18T06:42:42.821Z,57.04
2022-08-18T06:45:52.352Z,57.10
2022-08-18T06:48:59.894Z,56.55
2022-08-18T06:52:21.787Z,55.91
2022-08-18T06:55:45.826Z,55.55
2022-08-18T06:58:52.664Z,55.06
2022-08-18T07:02:31.094Z,53.88
2022-08-18T07:05:57.983Z,53.74
2022-08-18T07:09:24.118Z,51.97
2022-08-18T07:12:32.908Z,51.99
2022-08-18T07:15:36.392Z,51.04
2022-08-18T07:18:39.374Z,50.67
2022-08-18T07:21:43.682Z,49.98
2022-08-18T07:24:50.245Z,49.89
2022-08-18T07:27:56.179Z,49.62
2022-08-18T07:31:17.445Z,49.83
2022-08-18T07:34:28.183Z,48.40
2022-08-18T07:37:45.553Z,49.04
2022-08-18T07:40:59.031Z,47.11
2022-08-18T07:44:13.516Z,46.71
2022-08-18T07:47:26.512Z,45.53
2022-08-18T07:50:58.535Z,45.34
2022-08-18T07:54:45.479Z,45.18
2022-08-18T07:57:51.726Z,44.65
2022-08-18T08:01:18.437Z,44.67
2022-08-18T08:04:43.080Z,44.63
2022-08-18T08:08:02.713Z,44.61
2022-08-18T08:11:18.969Z,44.25
2022-08-18T08:14:26.733Z,43.67
2022-08-18T08:17:54.746Z,43.72
2022-08-18T08:21:04.183Z,42.61
2022-08-18T08:28:57.624Z,42.24
2022-08-18T08:32:03.293Z,41.44
2022-08-18T08:35:16.223Z,41.37
2022-08-18T08:38:55.199Z,41.20
2022-08-18T08:42:31.816Z,40.18
2022-08-18T08:45:33.509Z,40.19
2022-08-18T08:49:22.881Z,39.75
2022-08-18T08:52:41.956Z,39.90
2022-08-18T08:55:49.847Z,39.00
2022-08-18T08:58:54.593Z,38.78
2022-08-18T09:02:06.140Z,38.54
2022-08-18T09:05:11.764Z,38.37
2022-08-18T09:08:52.098Z,38.80
2022-08-18T09:12:13.692Z,38.46
2022-08-18T09:15:41.105Z,38.15
2022-08-18T09:19:21.973Z,38.13
2022-08-18T09:22:36.978Z,38.46
2022-08-18T09:25:59.443Z,37.64
2022-08-18T09:29:33.086Z,36.02
2022-08-18T09:33:27.325Z,34.52
2022-08-18T09:37:00.533Z,34.92
2022-08-18T09:41:01.147Z,35.47
2022-08-18T09:44:21.447Z,34.03
2022-08-18T09:47:30.473Z,33.47
2022-08-18T09:50:38.532Z,33.53
2022-08-18T09:53:47.860Z,32.53
2022-08-18T09:56:54.091Z,32.28
2022-08-18T10:00:05.114Z,32.74
2022-08-18T10:03:25.845Z,34.27
2022-08-18T10:06:29.255Z,32.85
2022-08-18T10:09:54.937Z,32.31
2022-08-18T10:13:06.883Z,32.07
2022-08-18T10:16:10.570Z,31.72
2022-08-18T10:20:01.047Z,31.46
2022-08-18T10:23:07.307Z,31.81
2022-08-18T10:26:30.371Z,31.23
2022-08-18T10:29:53.550Z,30.55
2022-08-18T10:32:58.108Z,29.97
2022-08-18T10:36:03.136Z,30.07
2022-08-18T10:39:11.366Z,29.55
2022-08-18T10:42:38.140Z,29.23
2022-08-18T10:46:21.105Z,28.34
2022-08-18T10:49:13.277Z,28.56
2022-08-18T10:52:29.980Z,28.23
2022-08-18T10:55:57.048Z,27.74
2022-08-18T10:59:28.281Z,27.30
2022-08-18T11:03:42.500Z,26.28
2022-08-18T11:06:41.559Z,26.22
2022-08-18T11:09:50.886Z,25.40
2022-08-18T11:13:28.378Z,24.43
2022-08-18T11:16:53.899Z,23.97
2022-08-18T11:20:00.353Z,22.54
2022-08-18T11:23:04.234Z,21.31
2022-08-18T11:26:15.381Z,20.59
2022-08-18T11:29:24.077Z,20.30
2022-08-18T11:32:32.788Z,20.11
2022-08-18T11:35:50.428Z,19.63
2022-08-18T11:38:55.983Z,19.75
2022-08-18T11:42:00.060Z,19.08
2022-08-18T11:45:19.755Z,17.42
2022-08-18T11:48:35.909Z,16.08
2022-08-18T11:51:55.082Z,16.13
2022-08-18T11:55:14.722Z,15.50
2022-08-18T11:58:40.620Z,14.99
2022-08-18T12:01:54.704Z,14.35
2022-08-18T12:05:10.225Z,14.99
2022-08-18T12:08:50.711Z,15.33
2022-08-18T12:11:51.143Z,14.75
2022-08-18T12:15:13.986Z,14.04
2022-08-18T12:18:28.588Z,14.09
2022-08-18T12:21:31.947Z,14.35
2022-08-18T12:24:39.237Z,14.47
2022-08-18T12:27:42.904Z,14.62
2022-08-18T12:30:47.485Z,14.18
2022-08-18T12:34:01.255Z,13.35
2022-08-18T12:37:14.343Z,13.05
2022-08-18T12:40:28.571Z,12.70
2022-08-18T12:43:32.542Z,12.80
2022-08-18T12:46:36.923Z,13.05
2022-08-18T12:49:40.174Z,12.37
2022-08-18T12:52:44.055Z,12.42
2022-08-18T12:55:47.290Z,12.52
2022-08-18T12:58:53.627Z,12.20
2022-08-18T13:01:58.316Z,11.94
2022-08-18T13:05:03.512Z,11.55
2022-08-18T13:08:30.042Z,11.15
2022-08-18T13:11:33.644Z,11.36
2022-08-18T13:14:37.961Z,11.09
2022-08-18T13:17:46.065Z,11.15
2022-08-18T13:20:51.453Z,11.43
2022-08-18T13:23:54.804Z,11.67
2022-08-18T13:26:57.699Z,11.41
2022-08-18T13:30:00.455Z,11.30
2022-08-18T13:33:33.943Z,10.89
2022-08-18T13:36:44.417Z,11.15
2022-08-18T13:39:50.153Z,10.99
2022-08-18T13:42:55.483Z,10.97
2022-08-18T13:46:00.001Z,11.32
2022-08-18T13:49:04.414Z,11.15
2022-08-18T13:52:21.908Z,11.62
2022-08-18T13:55:33.661Z,11.72
2022-08-18T13:58:38.567Z,11.53
2022-08-18T14:01:56.188Z,11.67
2022-08-18T14:04:59.357Z,12.23
2022-08-18T14:08:02.216Z,12.04
2022-08-18T14:11:05.600Z,12.51
2022-08-18T14:14:08.273Z,12.43
2022-08-18T14:17:11.258Z,14.75
2022-08-18T14:20:32.329Z,16.12
2022-08-18T14:23:53.142Z,17.70
2022-08-18T14:26:55.949Z,19.53
2022-08-18T14:30:01.924Z,20.11
2022-08-18T14:33:11.632Z,20.56
2022-08-18T14:36:16.241Z,20.86
2022-08-18T14:39:22.093Z,20.60
2022-08-18T14:42:40.907Z,21.07
2022-08-18T14:45:48.846Z,21.44
2022-08-18T14:48:52.307Z,21.34
2022-08-18T14:51:54.933Z,21.47
2022-08-18T14:54:59.486Z,21.46
2022-08-18T14:58:02.161Z,21.43
2022-08-18T15:01:08.436Z,21.98
2022-08-18T15:04:19.123Z,22.75
2022-08-18T15:07:24.121Z,22.61
2022-08-18T15:10:27.866Z,22.59
2022-08-18T15:13:32.197Z,23.01
2022-08-18T15:16:38.591Z,22.86
2022-08-18T15:19:58.532Z,23.20
2022-08-18T15:23:27.990Z,23.52
2022-08-18T15:26:32.475Z,23.47
2022-08-18T15:29:41.460Z,23.75
